createdAt,value
2017-10-30T00:00:23.975Z,0
2017-10-30T00:01:26.328Z,0
2017-10-30T00:02:28.713Z,0
2017-10-30T00:03:31.081Z,0
2017-10-30T00:04:33.445Z,0
2017-10-30T00:05:35.811Z,0
2017-10-30T00:06:38.181Z,0
2017-10-30T00:07:40.909Z,0
2017-10-30T00:08:43.636Z,0
2017-10-30T00:09:45.999Z,0
2017-10-30T00:10:48.375Z,0
2017-10-30T00:11:50.736Z,0
2017-10-30T00:12:53.110Z,0
2017-10-30T00:13:55.473Z,0
2017-10-30T00:14:57.840Z,0
2017-10-30T00:16:00.210Z,0
2017-10-30T00:17:02.577Z,0
2017-10-30T00:18:04.946Z,0
2017-10-30T00:19:07.314Z,0
2017-10-30T00:20:09.676Z,0
2017-10-30T00:21:12.056Z,0
2017-10-30T00:22:14.420Z,0
2017-10-30T00:23:16.784Z,0
2017-10-30T00:24:19.151Z,0
2017-10-30T00:25:21.519Z,0
2017-10-30T00:26:23.878Z,0
2017-10-30T00:27:26.259Z,0
2017-10-30T00:28:28.610Z,0
2017-10-30T00:29:30.986Z,0
2017-10-30T00:30:33.352Z,0
2017-10-30T00:31:35.714Z,0
2017-10-30T00:32:38.086Z,0
2017-10-30T00:33:40.453Z,0
2017-10-30T00:34:42.820Z,0
2017-10-30T00:35:45.184Z,0
2017-10-30T00:36:47.548Z,0
2017-10-30T00:37:49.928Z,0
2017-10-30T00:38:52.296Z,0
2017-10-30T00:39:54.663Z,0
2017-10-30T00:40:57.037Z,0
2017-10-30T00:41:59.412Z,0
2017-10-30T00:43:02.128Z,0
2017-10-30T00:44:04.497Z,0
2017-10-30T00:45:06.854Z,0
2017-10-30T00:46:09.220Z,0
2017-10-30T00:47:11.588Z,0
2017-10-30T00:48:14.308Z,0
2017-10-30T00:49:16.671Z,0
2017-10-30T00:50:19.035Z,0
2017-10-30T00:51:21.394Z,0
2017-10-30T00:52:23.775Z,0
2017-10-30T00:53:26.143Z,0
2017-10-30T00:54:28.509Z,0
2017-10-30T00:55:30.873Z,0
2017-10-30T00:56:33.252Z,0
2017-10-30T00:57:35.971Z,0
2017-10-30T00:58:38.346Z,0
2017-10-30T00:59:41.074Z,0
2017-10-30T01:00:43.435Z,0
2017-10-30T01:01:45.821Z,0
2017-10-30T01:02:48.181Z,0
2017-10-30T01:03:50.542Z,0
2017-10-30T01:04:52.920Z,0
2017-10-30T01:05:55.289Z,0
2017-10-30T01:06:57.662Z,0
2017-10-30T01:08:00.031Z,0
2017-10-30T01:09:02.402Z,0
2017-10-30T01:10:04.763Z,0
2017-10-30T01:11:07.139Z,0
2017-10-30T01:12:09.496Z,0
2017-10-30T01:13:12.597Z,0
2017-10-30T01:14:14.960Z,0
2017-10-30T01:15:17.332Z,0
2017-10-30T01:16:19.692Z,0
2017-10-30T01:17:22.067Z,0
2017-10-30T01:18:24.421Z,0
2017-10-30T01:19:26.794Z,0
2017-10-30T01:20:29.170Z,0
2017-10-30T01:21:31.545Z,0
2017-10-30T01:22:33.907Z,0
2017-10-30T01:23:36.276Z,0
2017-10-30T01:24:38.639Z,0
2017-10-30T01:25:41.024Z,0
2017-10-30T01:26:43.382Z,0
2017-10-30T01:27:45.752Z,0
2017-10-30T01:28:48.114Z,0
2017-10-30T01:29:50.476Z,0
2017-10-30T01:30:52.859Z,0
2017-10-30T01:31:55.214Z,0
2017-10-30T01:32:57.572Z,0
2017-10-30T01:33:59.950Z,0
2017-10-30T01:35:02.311Z,0
2017-10-30T01:36:04.686Z,0
2017-10-30T01:37:07.048Z,0
2017-10-30T01:38:09.413Z,0
2017-10-30T01:39:12.133Z,0
2017-10-30T01:40:14.495Z,0
2017-10-30T01:41:16.864Z,0
2017-10-30T01:42:19.225Z,0
2017-10-30T01:43:21.592Z,0
2017-10-30T01:44:24.341Z,0
2017-10-30T01:45:26.697Z,0
2017-10-30T01:46:29.059Z,0
2017-10-30T01:47:31.433Z,0
2017-10-30T01:48:33.800Z,0
2017-10-30T01:49:36.161Z,0
2017-10-30T01:50:38.539Z,0
2017-10-30T01:51:40.889Z,0
2017-10-30T01:52:43.262Z,0
2017-10-30T01:53:46.005Z,0
2017-10-30T01:54:48.365Z,0
2017-10-30T01:55:50.735Z,0
2017-10-30T01:56:53.105Z,0
2017-10-30T01:57:55.460Z,0
2017-10-30T01:58:57.837Z,0
2017-10-30T02:00:00.220Z,0
2017-10-30T02:01:02.580Z,0
2017-10-30T02:02:04.954Z,0
2017-10-30T02:03:07.323Z,0
2017-10-30T02:04:09.688Z,0
2017-10-30T02:05:12.052Z,0
2017-10-30T02:06:14.428Z,0
2017-10-30T02:07:16.797Z,0
2017-10-30T02:08:19.503Z,0
2017-10-30T02:09:21.875Z,0
2017-10-30T02:10:24.236Z,0
2017-10-30T02:11:26.611Z,0
2017-10-30T02:12:28.979Z,0
2017-10-30T02:13:31.346Z,0
2017-10-30T02:14:33.713Z,0
2017-10-30T02:15:36.088Z,0
2017-10-30T02:16:38.452Z,0
2017-10-30T02:17:40.821Z,0
2017-10-30T02:18:43.540Z,0
2017-10-30T02:19:45.921Z,0
2017-10-30T02:20:48.280Z,0
2017-10-30T02:21:50.655Z,0
2017-10-30T02:22:53.018Z,0
2017-10-30T02:23:55.741Z,0
2017-10-30T02:24:58.114Z,0
2017-10-30T02:26:00.476Z,0
2017-10-30T02:27:02.845Z,0
2017-10-30T02:28:05.212Z,0
2017-10-30T02:29:07.925Z,0
2017-10-30T02:30:10.293Z,0
2017-10-30T02:31:13.039Z,0
2017-10-30T02:32:15.410Z,0
2017-10-30T02:33:17.771Z,0
2017-10-30T02:34:20.521Z,0
2017-10-30T02:35:22.889Z,0
2017-10-30T02:36:25.613Z,0
2017-10-30T02:37:27.982Z,0
2017-10-30T02:38:30.377Z,0
2017-10-30T02:39:32.712Z,0
2017-10-30T02:40:35.457Z,0
2017-10-30T02:41:37.815Z,0
2017-10-30T02:42:40.181Z,0
2017-10-30T02:43:42.565Z,0
2017-10-30T02:44:44.922Z,0
2017-10-30T02:45:47.296Z,0
2017-10-30T02:46:49.669Z,0
2017-10-30T02:47:52.031Z,0
2017-10-30T02:48:54.413Z,0
2017-10-30T02:49:56.781Z,0
2017-10-30T02:50:59.144Z,0
2017-10-30T02:52:01.510Z,0
2017-10-30T02:53:03.873Z,0
2017-10-30T02:54:06.241Z,0
2017-10-30T02:55:08.645Z,0
2017-10-30T02:56:11.705Z,0
2017-10-30T02:57:14.071Z,0
2017-10-30T02:58:16.442Z,0
2017-10-30T02:59:18.804Z,0
2017-10-30T03:00:21.173Z,0
2017-10-30T03:01:23.540Z,0
2017-10-30T03:02:25.913Z,0
2017-10-30T03:03:28.273Z,0
2017-10-30T03:04:30.636Z,0
2017-10-30T03:05:33.013Z,0
2017-10-30T03:06:35.378Z,0
2017-10-30T03:07:37.747Z,0
2017-10-30T03:08:40.119Z,0
2017-10-30T03:09:42.491Z,0
2017-10-30T03:10:45.213Z,0
2017-10-30T03:11:47.586Z,0
2017-10-30T03:12:49.946Z,0
2017-10-30T03:13:52.306Z,0
2017-10-30T03:14:54.689Z,0
2017-10-30T03:15:57.053Z,0
2017-10-30T03:16:59.777Z,0
2017-10-30T03:18:02.503Z,0
2017-10-30T03:19:04.873Z,0
2017-10-30T03:20:07.593Z,0
2017-10-30T03:21:09.961Z,0
2017-10-30T03:22:12.319Z,0
2017-10-30T03:23:14.686Z,0
2017-10-30T03:24:17.401Z,0
2017-10-30T03:25:19.763Z,0
2017-10-30T03:26:22.141Z,0
2017-10-30T03:27:24.506Z,0
2017-10-30T03:28:26.869Z,0
2017-10-30T03:29:29.247Z,0
2017-10-30T03:30:31.613Z,0
2017-10-30T03:31:33.983Z,0
2017-10-30T03:32:36.346Z,0
2017-10-30T03:33:38.712Z,0
2017-10-30T03:34:41.435Z,0
2017-10-30T03:35:43.820Z,0
2017-10-30T03:36:46.536Z,0
2017-10-30T03:37:48.910Z,0
2017-10-30T03:38:51.275Z,0
2017-10-30T03:39:53.652Z,0
2017-10-30T03:40:56.017Z,0
2017-10-30T03:41:58.387Z,0
2017-10-30T03:43:00.749Z,0
2017-10-30T03:44:03.120Z,0
2017-10-30T03:45:05.480Z,0
2017-10-30T03:46:07.862Z,0
2017-10-30T03:47:10.212Z,0
2017-10-30T03:48:12.591Z,0
2017-10-30T03:49:14.964Z,0
2017-10-30T03:50:17.318Z,0
2017-10-30T03:51:19.694Z,0
2017-10-30T03:52:22.058Z,0
2017-10-30T03:53:24.427Z,0
2017-10-30T03:54:26.810Z,0
2017-10-30T03:55:29.182Z,0
2017-10-30T03:56:31.548Z,0
2017-10-30T03:57:33.925Z,0
2017-10-30T03:58:36.288Z,0
2017-10-30T03:59:38.650Z,0
2017-10-30T04:00:41.022Z,0
2017-10-30T04:01:43.391Z,0
2017-10-30T04:02:45.745Z,0
2017-10-30T04:03:48.126Z,0
2017-10-30T04:04:50.492Z,0
2017-10-30T04:05:52.862Z,0
2017-10-30T04:06:55.230Z,0
2017-10-30T04:07:57.596Z,0
2017-10-30T04:08:59.967Z,0
2017-10-30T04:10:02.336Z,0
2017-10-30T04:11:04.697Z,0
2017-10-30T04:12:07.060Z,0
2017-10-30T04:13:09.424Z,0
2017-10-30T04:14:11.795Z,0
2017-10-30T04:15:14.164Z,0
2017-10-30T04:16:16.536Z,0
2017-10-30T04:17:18.897Z,0
2017-10-30T04:18:21.256Z,0
2017-10-30T04:19:23.618Z,0
2017-10-30T04:20:25.988Z,0
2017-10-30T04:21:28.709Z,0
2017-10-30T04:22:31.063Z,0
2017-10-30T04:23:33.444Z,0
2017-10-30T04:24:36.152Z,0
2017-10-30T04:25:38.887Z,0
2017-10-30T04:26:41.244Z,0
2017-10-30T04:27:43.613Z,0
2017-10-30T04:28:45.982Z,0
2017-10-30T04:29:48.351Z,0
2017-10-30T04:30:50.709Z,0
2017-10-30T04:31:53.083Z,0
2017-10-30T04:32:55.838Z,0
2017-10-30T04:33:58.575Z,0
2017-10-30T04:35:01.296Z,0
2017-10-30T04:36:04.032Z,0
2017-10-30T04:37:06.403Z,0
2017-10-30T04:38:09.144Z,0
2017-10-30T04:39:11.520Z,0
2017-10-30T04:40:13.879Z,0
2017-10-30T04:41:16.252Z,0
2017-10-30T04:42:18.607Z,0
2017-10-30T04:43:20.978Z,0
2017-10-30T04:44:23.696Z,0
2017-10-30T04:45:26.086Z,0
2017-10-30T04:46:28.437Z,0
2017-10-30T04:47:30.804Z,0
2017-10-30T04:48:33.180Z,0
2017-10-30T04:49:35.538Z,0
2017-10-30T04:50:37.910Z,0
2017-10-30T04:51:40.272Z,0
2017-10-30T04:52:42.644Z,0
2017-10-30T04:53:45.006Z,0
2017-10-30T04:54:47.380Z,0
2017-10-30T04:55:49.744Z,0
2017-10-30T04:56:52.113Z,0
2017-10-30T04:57:54.482Z,0
2017-10-30T04:58:56.846Z,0
2017-10-30T04:59:59.218Z,0
2017-10-30T05:01:01.577Z,0
2017-10-30T05:02:03.964Z,0
2017-10-30T05:03:06.332Z,0
2017-10-30T05:04:09.042Z,0
2017-10-30T05:05:11.406Z,0
2017-10-30T05:06:13.795Z,0
2017-10-30T05:07:16.161Z,0
2017-10-30T05:08:18.529Z,0
2017-10-30T05:09:21.591Z,0
2017-10-30T05:10:24.006Z,0
2017-10-30T05:11:26.677Z,0
2017-10-30T05:12:29.036Z,0
2017-10-30T05:13:31.410Z,0
2017-10-30T05:14:33.778Z,0
2017-10-30T05:15:36.150Z,0
2017-10-30T05:16:38.523Z,0
2017-10-30T05:17:40.890Z,0
2017-10-30T05:18:43.257Z,0
2017-10-30T05:19:45.626Z,0
2017-10-30T05:20:48.043Z,0
2017-10-30T05:21:50.416Z,0
2017-10-30T05:22:52.778Z,0
2017-10-30T05:23:55.147Z,0
2017-10-30T05:24:57.517Z,0
2017-10-30T05:25:59.884Z,0
2017-10-30T05:27:02.609Z,0
2017-10-30T05:28:04.966Z,0
2017-10-30T05:29:07.673Z,0
2017-10-30T05:30:10.049Z,0
2017-10-30T05:31:12.406Z,4
2017-10-30T05:32:15.173Z,4
2017-10-30T05:33:17.541Z,0
2017-10-30T05:34:19.914Z,0
2017-10-30T05:35:22.264Z,4
2017-10-30T05:36:24.981Z,4
2017-10-30T05:37:27.349Z,4
2017-10-30T05:38:29.715Z,8
2017-10-30T05:39:32.082Z,8
2017-10-30T05:40:34.799Z,8
2017-10-30T05:41:37.519Z,12
2017-10-30T05:42:40.242Z,12
2017-10-30T05:43:42.601Z,12
2017-10-30T05:44:45.332Z,20
2017-10-30T05:45:47.703Z,20
2017-10-30T05:46:50.064Z,24
2017-10-30T05:47:52.431Z,32
2017-10-30T05:48:54.801Z,36
2017-10-30T05:49:57.168Z,44
2017-10-30T05:50:59.529Z,52
2017-10-30T05:52:02.245Z,60
2017-10-30T05:53:04.618Z,72
2017-10-30T05:54:06.976Z,84
2017-10-30T05:55:09.666Z,92
2017-10-30T05:56:14.032Z,108
2017-10-30T05:57:16.408Z,124
2017-10-30T05:58:18.774Z,140
2017-10-30T05:59:21.160Z,156
2017-10-30T06:00:23.531Z,180
2017-10-30T06:01:25.901Z,200
2017-10-30T06:02:28.264Z,228
2017-10-30T06:03:30.654Z,252
2017-10-30T06:04:33.370Z,280
2017-10-30T06:05:35.732Z,308
2017-10-30T06:06:38.110Z,340
2017-10-30T06:07:40.505Z,372
2017-10-30T06:08:43.230Z,408
2017-10-30T06:09:45.611Z,444
2017-10-30T06:10:47.966Z,480
2017-10-30T06:11:50.336Z,520
2017-10-30T06:12:53.072Z,560
2017-10-30T06:13:55.430Z,604
2017-10-30T06:14:57.798Z,648
2017-10-30T06:16:00.171Z,692
2017-10-30T06:17:02.686Z,740
2017-10-30T06:18:06.807Z,788
2017-10-30T06:19:09.520Z,836
2017-10-30T06:20:11.903Z,888
2017-10-30T06:21:14.278Z,936
2017-10-30T06:22:16.653Z,992
2017-10-30T06:23:19.369Z,1052
2017-10-30T06:24:21.737Z,1116
2017-10-30T06:25:24.671Z,1184
2017-10-30T06:26:27.184Z,1244
2017-10-30T06:27:29.918Z,1312
2017-10-30T06:28:32.294Z,1384
2017-10-30T06:29:34.671Z,1460
2017-10-30T06:30:37.064Z,1528
2017-10-30T06:31:40.138Z,1600
2017-10-30T06:32:42.500Z,1668
2017-10-30T06:33:44.981Z,1736
2017-10-30T06:34:47.846Z,1804
2017-10-30T06:35:50.378Z,1864
2017-10-30T06:36:53.097Z,1908
2017-10-30T06:37:55.463Z,1908
2017-10-30T06:38:57.904Z,1916
2017-10-30T06:40:00.388Z,1952
2017-10-30T06:41:03.173Z,2004
2017-10-30T06:42:05.573Z,2072
2017-10-30T06:43:08.404Z,2168
2017-10-30T06:44:11.121Z,2288
2017-10-30T06:45:13.494Z,2412
2017-10-30T06:46:16.261Z,2536
2017-10-30T06:47:18.984Z,2648
2017-10-30T06:48:22.014Z,2756
2017-10-30T06:49:24.386Z,2840
2017-10-30T06:50:27.008Z,3220
2017-10-30T06:51:29.385Z,4012
2017-10-30T06:52:32.973Z,4420
2017-10-30T06:53:35.325Z,5044
2017-10-30T06:54:37.694Z,4900
2017-10-30T06:55:40.064Z,5340
2017-10-30T06:56:42.818Z,6136
2017-10-30T06:57:45.201Z,6524
2017-10-30T06:58:47.582Z,8220
2017-10-30T06:59:49.945Z,8516
2017-10-30T07:00:52.317Z,9008
2017-10-30T07:01:54.680Z,12284
2017-10-30T07:02:57.055Z,13044
2017-10-30T07:03:59.422Z,12816
2017-10-30T07:05:03.183Z,13216
2017-10-30T07:06:05.550Z,15648
2017-10-30T07:07:07.980Z,19616
2017-10-30T07:08:11.137Z,20800
2017-10-30T07:09:13.511Z,12588
2017-10-30T07:10:15.989Z,15520
2017-10-30T07:11:18.361Z,15232
2017-10-30T07:12:20.730Z,10720
2017-10-30T07:13:23.109Z,11348
2017-10-30T07:14:25.467Z,10768
2017-10-30T07:15:27.935Z,14392
2017-10-30T07:16:30.357Z,10820
2017-10-30T07:17:32.724Z,4980
2017-10-30T07:18:35.095Z,24992
2017-10-30T07:19:37.463Z,24992
2017-10-30T07:20:39.836Z,25472
2017-10-30T07:21:42.392Z,23968
2017-10-30T07:22:44.754Z,19488
2017-10-30T07:23:47.128Z,15852
2017-10-30T07:24:49.849Z,21056
2017-10-30T07:25:52.217Z,24928
2017-10-30T07:26:54.644Z,30560
2017-10-30T07:27:57.167Z,33120
2017-10-30T07:28:59.533Z,31712
2017-10-30T07:30:01.917Z,29280
2017-10-30T07:31:04.640Z,29216
2017-10-30T07:32:07.020Z,30304
2017-10-30T07:33:09.951Z,30848
2017-10-30T07:34:12.307Z,33728
2017-10-30T07:35:14.677Z,32640
2017-10-30T07:36:17.053Z,7672
2017-10-30T07:37:19.428Z,16604
2017-10-30T07:38:21.796Z,5060
2017-10-30T07:39:24.165Z,16484
2017-10-30T07:40:26.538Z,34528
2017-10-30T07:41:29.276Z,33248
2017-10-30T07:42:31.647Z,26368
2017-10-30T07:43:34.014Z,13796
2017-10-30T07:44:36.393Z,5004
2017-10-30T07:45:38.760Z,4512
2017-10-30T07:46:41.137Z,4264
2017-10-30T07:47:43.517Z,4372
2017-10-30T07:48:45.877Z,4564
2017-10-30T07:49:48.251Z,4988
2017-10-30T07:50:50.649Z,12944
2017-10-30T07:51:53.008Z,28736
2017-10-30T07:52:55.368Z,41472
2017-10-30T07:53:57.737Z,32672
2017-10-30T07:55:00.094Z,41344
2017-10-30T07:56:02.479Z,43840
2017-10-30T07:57:04.863Z,46272
2017-10-30T07:58:07.232Z,47968
2017-10-30T07:59:09.589Z,46624
2017-10-30T08:00:11.972Z,44896
2017-10-30T08:01:14.344Z,44960
2017-10-30T08:02:16.715Z,46592
2017-10-30T08:03:19.079Z,45632
2017-10-30T08:04:21.452Z,44640
2017-10-30T08:05:23.821Z,45248
2017-10-30T08:06:26.201Z,44256
2017-10-30T08:07:28.563Z,46144
2017-10-30T08:08:31.309Z,42912
2017-10-30T08:09:33.693Z,45312
2017-10-30T08:10:36.073Z,47008
2017-10-30T08:11:38.448Z,43008
2017-10-30T08:12:40.826Z,46752
2017-10-30T08:13:43.206Z,48544
2017-10-30T08:14:45.583Z,48736
2017-10-30T08:15:47.955Z,56544
2017-10-30T08:16:50.680Z,64576
2017-10-30T08:17:53.061Z,60832
2017-10-30T08:18:55.440Z,54560
2017-10-30T08:19:57.811Z,51136
2017-10-30T08:21:00.196Z,48032
2017-10-30T08:22:02.563Z,43840
2017-10-30T08:23:04.950Z,40768
2017-10-30T08:24:07.330Z,41920
2017-10-30T08:25:09.702Z,41280
2017-10-30T08:26:12.431Z,42720
2017-10-30T08:27:14.808Z,41696
2017-10-30T08:28:17.188Z,41984
2017-10-30T08:29:19.571Z,44928
2017-10-30T08:30:21.940Z,48768
2017-10-30T08:31:24.330Z,46912
2017-10-30T08:32:26.707Z,44384
2017-10-30T08:33:29.074Z,47872
2017-10-30T08:34:31.455Z,52192
2017-10-30T08:35:34.184Z,54240
2017-10-30T08:36:36.570Z,52512
2017-10-30T08:37:38.949Z,58528
2017-10-30T08:38:41.334Z,71200
2017-10-30T08:39:43.718Z,75904
2017-10-30T08:40:46.097Z,69088
2017-10-30T08:41:48.828Z,70912
2017-10-30T08:42:51.201Z,70144
2017-10-30T08:43:53.586Z,65760
2017-10-30T08:44:56.316Z,65440
2017-10-30T08:45:58.704Z,65792
2017-10-30T08:47:01.075Z,59520
2017-10-30T08:48:03.490Z,53792
2017-10-30T08:49:06.565Z,55520
2017-10-30T08:50:08.946Z,55552
2017-10-30T08:51:11.339Z,50240
2017-10-30T08:52:13.715Z,49280
2017-10-30T08:53:16.103Z,51328
2017-10-30T08:54:18.487Z,55328
2017-10-30T08:55:20.871Z,58624
2017-10-30T08:56:23.252Z,62272
2017-10-30T08:57:25.630Z,65344
2017-10-30T08:58:28.009Z,65120
2017-10-30T08:59:30.399Z,57760
2017-10-30T09:00:32.790Z,55136
2017-10-30T09:01:35.194Z,54176
2017-10-30T09:02:37.570Z,50528
2017-10-30T09:03:40.331Z,50272
2017-10-30T09:04:42.722Z,53152
2017-10-30T09:05:45.101Z,56448
2017-10-30T09:06:47.491Z,58816
2017-10-30T09:07:49.866Z,57632
2017-10-30T09:08:52.613Z,60800
2017-10-30T09:09:54.993Z,60384
2017-10-30T09:10:57.379Z,57344
2017-10-30T09:11:59.755Z,61856
2017-10-30T09:14:06.725Z,62528
2017-10-30T09:15:09.105Z,63136
2017-10-30T09:16:11.494Z,67488
2017-10-30T09:17:13.875Z,70720
2017-10-30T09:18:16.612Z,71488
2017-10-30T09:19:18.991Z,73312
2017-10-30T09:20:21.388Z,70944
2017-10-30T09:21:23.761Z,62688
2017-10-30T09:22:26.505Z,62784
2017-10-30T09:23:29.585Z,66240
2017-10-30T09:24:31.973Z,72832
2017-10-30T09:25:34.350Z,72832
2017-10-30T09:26:36.744Z,68256
2017-10-30T09:27:39.471Z,65728
2017-10-30T09:28:41.858Z,63680
2017-10-30T09:29:44.242Z,65376
2017-10-30T09:30:46.632Z,62336
2017-10-30T09:31:49.015Z,58944
2017-10-30T09:32:51.393Z,56800
2017-10-30T09:33:53.793Z,54944
2017-10-30T09:34:56.175Z,54464
2017-10-30T09:35:58.563Z,53952
2017-10-30T09:37:00.953Z,60384
2017-10-30T09:38:03.331Z,67648
2017-10-30T09:39:05.729Z,70272
2017-10-30T09:40:08.122Z,69120
2017-10-30T09:41:10.502Z,67776
2017-10-30T09:42:12.958Z,65216
2017-10-30T09:43:15.339Z,67200
2017-10-30T09:44:17.728Z,64288
2017-10-30T09:45:20.120Z,64640
2017-10-30T09:46:22.488Z,67392
2017-10-30T09:47:24.875Z,69024
2017-10-30T09:48:27.624Z,70880
2017-10-30T09:49:30.011Z,68128
2017-10-30T09:50:32.404Z,65184
2017-10-30T09:51:34.787Z,67200
2017-10-30T09:52:37.175Z,41536
2017-10-30T09:53:39.571Z,82496
2017-10-30T09:54:42.357Z,80928
2017-10-30T09:55:44.736Z,93344
2017-10-30T09:56:47.128Z,100672
2017-10-30T09:57:49.510Z,98816
2017-10-30T09:58:51.902Z,98624
2017-10-30T09:59:54.308Z,97312
2017-10-30T10:00:56.700Z,96096
2017-10-30T10:01:59.093Z,94752
2017-10-30T10:03:01.701Z,93344
2017-10-30T10:04:04.092Z,91968
2017-10-30T10:05:06.494Z,90656
2017-10-30T10:06:08.875Z,86688
2017-10-30T10:07:11.278Z,82592
2017-10-30T10:08:13.839Z,80576
2017-10-30T10:09:16.401Z,85088
2017-10-30T10:10:18.791Z,83680
2017-10-30T10:11:21.592Z,85984
2017-10-30T10:12:23.946Z,87072
2017-10-30T10:13:26.722Z,86560
2017-10-30T10:14:29.310Z,86016
2017-10-30T10:15:31.705Z,81888
2017-10-30T10:16:34.085Z,81024
2017-10-30T10:17:36.501Z,79712
2017-10-30T10:18:39.240Z,79648
2017-10-30T10:19:42.393Z,50112
2017-10-30T10:20:44.775Z,58144
2017-10-30T10:21:47.161Z,23264
2017-10-30T10:22:49.570Z,72448
2017-10-30T10:23:51.959Z,59008
2017-10-30T10:24:54.729Z,49120
2017-10-30T10:25:57.113Z,15552
2017-10-30T10:26:59.490Z,79872
2017-10-30T10:28:02.107Z,34560
2017-10-30T10:29:04.505Z,74144
2017-10-30T10:30:06.884Z,76448
2017-10-30T10:31:09.278Z,79168
2017-10-30T10:32:11.896Z,73184
2017-10-30T10:33:14.291Z,70976
2017-10-30T10:34:16.671Z,70688
2017-10-30T10:35:19.084Z,72192
2017-10-30T10:36:21.452Z,73152
2017-10-30T10:37:23.965Z,78560
2017-10-30T10:38:26.372Z,80960
2017-10-30T10:39:28.758Z,79776
2017-10-30T10:40:31.140Z,75264
2017-10-30T10:41:33.880Z,22464
2017-10-30T10:42:36.267Z,71648
2017-10-30T10:43:38.668Z,71136
2017-10-30T10:44:41.056Z,72032
2017-10-30T10:45:43.531Z,72512
2017-10-30T10:46:45.914Z,70048
2017-10-30T10:47:48.302Z,67328
2017-10-30T10:48:50.686Z,64288
2017-10-30T10:49:53.196Z,64480
2017-10-30T10:50:55.577Z,73504
2017-10-30T10:51:57.964Z,78240
2017-10-30T10:53:00.446Z,81216
2017-10-30T10:54:02.835Z,88384
2017-10-30T10:55:05.205Z,89376
2017-10-30T10:56:07.601Z,89440
2017-10-30T10:57:09.989Z,87744
2017-10-30T10:58:12.378Z,82624
2017-10-30T10:59:14.772Z,76320
2017-10-30T11:00:17.169Z,77536
2017-10-30T11:01:19.551Z,73152
2017-10-30T11:02:21.936Z,66656
2017-10-30T11:03:24.424Z,70528
2017-10-30T11:04:26.867Z,78048
2017-10-30T11:05:29.560Z,74528
2017-10-30T11:06:31.943Z,69088
2017-10-30T11:07:34.326Z,71552
2017-10-30T11:08:36.707Z,75136
2017-10-30T11:09:39.111Z,76704
2017-10-30T11:10:41.854Z,78400
2017-10-30T11:11:44.238Z,13268
2017-10-30T11:12:46.634Z,71360
2017-10-30T11:13:49.035Z,23008
2017-10-30T11:14:51.422Z,14460
2017-10-30T11:15:53.812Z,89344
2017-10-30T11:16:56.202Z,87392
2017-10-30T11:17:58.584Z,23904
2017-10-30T11:19:00.982Z,18524
2017-10-30T11:20:03.717Z,14268
2017-10-30T11:21:06.470Z,82816
2017-10-30T11:22:08.866Z,83296
2017-10-30T11:23:11.253Z,81792
2017-10-30T11:24:14.002Z,77728
2017-10-30T11:25:16.390Z,81056
2017-10-30T11:26:19.140Z,84928
2017-10-30T11:27:21.520Z,89760
2017-10-30T11:28:23.918Z,93568
2017-10-30T11:29:26.304Z,91360
2017-10-30T11:30:29.052Z,86048
2017-10-30T11:31:31.445Z,82496
2017-10-30T11:32:33.829Z,76576
2017-10-30T11:33:36.206Z,71232
2017-10-30T11:34:38.611Z,15036
2017-10-30T11:35:40.984Z,12404
2017-10-30T11:36:43.387Z,14000
2017-10-30T11:37:45.789Z,17768
2017-10-30T11:38:48.166Z,72544
2017-10-30T11:39:50.556Z,85600
2017-10-30T11:40:52.941Z,85056
2017-10-30T11:41:55.327Z,86720
2017-10-30T11:42:57.713Z,18192
2017-10-30T11:44:00.105Z,64000
2017-10-30T11:45:02.494Z,17048
2017-10-30T11:46:05.222Z,20608
2017-10-30T11:47:07.614Z,13808
2017-10-30T11:48:09.995Z,11012
2017-10-30T11:49:12.386Z,11704
2017-10-30T11:50:14.772Z,14604
2017-10-30T11:51:17.163Z,9352
2017-10-30T11:52:19.544Z,50912
2017-10-30T11:53:21.935Z,9068
2017-10-30T11:54:24.317Z,9012
2017-10-30T11:55:26.709Z,8792
2017-10-30T11:56:29.089Z,9328
2017-10-30T11:57:31.669Z,71392
2017-10-30T11:58:34.049Z,67424
2017-10-30T11:59:36.447Z,10120
2017-10-30T12:00:38.832Z,10820
2017-10-30T12:01:41.212Z,12288
2017-10-30T12:02:43.594Z,37024
2017-10-30T12:03:46.338Z,75616
2017-10-30T12:04:49.065Z,73248
2017-10-30T12:05:51.455Z,64704
2017-10-30T12:06:53.830Z,25952
2017-10-30T12:07:56.215Z,49472
2017-10-30T12:08:58.602Z,24576
2017-10-30T12:10:00.984Z,73760
2017-10-30T12:11:03.367Z,41344
2017-10-30T12:12:05.750Z,13908
2017-10-30T12:13:08.486Z,56160
2017-10-30T12:14:10.867Z,17488
2017-10-30T12:15:13.250Z,18592
2017-10-30T12:16:15.630Z,15284
2017-10-30T12:17:18.009Z,70784
2017-10-30T12:18:20.408Z,69888
2017-10-30T12:19:22.786Z,49504
2017-10-30T12:20:25.534Z,66336
2017-10-30T12:21:27.912Z,49792
2017-10-30T12:22:30.307Z,66880
2017-10-30T12:23:32.693Z,64736
2017-10-30T12:24:35.078Z,65632
2017-10-30T12:25:37.448Z,25824
2017-10-30T12:26:39.832Z,63616
2017-10-30T12:27:42.213Z,22656
2017-10-30T12:28:44.606Z,58560
2017-10-30T12:29:46.970Z,57760
2017-10-30T12:30:49.358Z,58016
2017-10-30T12:31:52.094Z,46880
2017-10-30T12:32:54.485Z,53600
2017-10-30T12:33:56.873Z,8616
2017-10-30T12:34:59.249Z,13756
2017-10-30T12:36:01.638Z,7988
2017-10-30T12:37:04.016Z,58240
2017-10-30T12:38:06.399Z,13824
2017-10-30T12:39:08.784Z,59904
2017-10-30T12:40:11.163Z,55488
2017-10-30T12:41:13.542Z,51456
2017-10-30T12:42:16.282Z,54592
2017-10-30T12:43:18.680Z,55744
2017-10-30T12:44:21.052Z,57760
2017-10-30T12:45:23.430Z,61312
2017-10-30T12:46:25.806Z,65376
2017-10-30T12:47:28.198Z,59968
2017-10-30T12:48:30.581Z,57408
2017-10-30T12:49:32.959Z,56320
2017-10-30T12:50:35.334Z,56448
2017-10-30T12:51:37.726Z,52960
2017-10-30T12:52:40.106Z,22560
2017-10-30T12:53:42.482Z,13492
2017-10-30T12:54:44.869Z,40928
2017-10-30T12:55:47.253Z,38880
2017-10-30T12:56:49.984Z,40000
2017-10-30T12:57:52.368Z,44960
2017-10-30T12:58:54.747Z,12540
2017-10-30T12:59:57.131Z,12080
2017-10-30T13:00:59.874Z,35904
2017-10-30T13:02:02.255Z,31104
2017-10-30T13:03:04.646Z,45792
2017-10-30T13:04:07.048Z,9352
2017-10-30T13:05:09.805Z,9384
2017-10-30T13:06:12.536Z,9452
2017-10-30T13:07:14.925Z,8996
2017-10-30T13:08:17.301Z,9272
2017-10-30T13:09:19.685Z,9480
2017-10-30T13:10:22.072Z,20864
2017-10-30T13:11:24.456Z,41888
2017-10-30T13:12:26.838Z,35840
2017-10-30T13:13:29.216Z,41504
2017-10-30T13:14:31.600Z,33280
2017-10-30T13:15:34.049Z,35648
2017-10-30T13:16:37.158Z,36480
2017-10-30T13:17:40.288Z,35808
2017-10-30T13:18:42.773Z,34208
2017-10-30T13:19:45.163Z,26176
2017-10-30T13:20:47.662Z,28512
2017-10-30T13:21:50.124Z,26688
2017-10-30T13:22:52.502Z,31744
2017-10-30T13:23:55.030Z,25536
2017-10-30T13:24:57.410Z,36160
2017-10-30T13:26:00.154Z,27392
2017-10-30T13:27:02.542Z,19872
2017-10-30T13:28:04.925Z,22720
2017-10-30T13:29:07.311Z,23168
2017-10-30T13:30:09.683Z,15892
2017-10-30T13:31:12.060Z,24256
2017-10-30T13:32:14.461Z,21792
2017-10-30T13:33:16.838Z,27904
2017-10-30T13:34:19.215Z,23936
2017-10-30T13:35:21.954Z,21312
2017-10-30T13:36:24.612Z,24192
2017-10-30T13:37:27.000Z,20640
2017-10-30T13:38:29.402Z,12600
2017-10-30T13:39:31.972Z,6564
2017-10-30T13:40:34.356Z,5884
2017-10-30T13:41:36.735Z,5852
2017-10-30T13:42:39.113Z,6072
2017-10-30T13:43:41.514Z,6940
2017-10-30T13:44:43.894Z,7084
2017-10-30T13:47:33.926Z,6832
2017-10-30T13:48:36.345Z,7268
2017-10-30T13:49:38.780Z,7572
2017-10-30T13:50:41.211Z,7640
2017-10-30T13:51:43.658Z,7532
2017-10-30T13:52:46.087Z,7352
2017-10-30T13:53:48.570Z,7268
2017-10-30T13:54:51.618Z,7100
2017-10-30T13:55:56.778Z,6656
2017-10-30T13:56:59.265Z,6076
2017-10-30T13:58:02.070Z,5716
2017-10-30T13:59:04.557Z,5644
2017-10-30T14:00:07.022Z,5400
2017-10-30T14:01:10.274Z,5064
2017-10-30T14:02:13.236Z,4872
2017-10-30T14:03:17.418Z,4632
2017-10-30T14:04:19.845Z,4544
2017-10-30T14:05:22.282Z,4444
2017-10-30T14:06:24.717Z,4388
2017-10-30T14:07:27.301Z,4300
2017-10-30T14:08:29.714Z,4340
2017-10-30T14:09:32.148Z,4272
2017-10-30T14:10:34.707Z,4292
2017-10-30T14:11:37.133Z,4380
2017-10-30T14:12:39.554Z,4356
2017-10-30T14:13:42.684Z,4348
2017-10-30T14:14:45.463Z,4432
2017-10-30T14:15:47.902Z,4452
2017-10-30T14:16:50.318Z,4352
2017-10-30T14:17:52.755Z,4388